N.dadayli — TCCW7 — position and weather

sailwx.info

Track history (hours):
 
Tides and Currents Weather Stations Pressure Air Temp Water Temp Dewpoint Dewpoint Depression Visibility Wind Speed Wind Dir Waves Ship Positions

N.dadayli

Last reported at 2017-Jun-25 06:20 UTC. Time now 2017-Jun-27 17:25 UTC.
Position N 39°27' E 000°44'.

Length 101 m; draft 8.1 m.

Type: Cargo ship. MMSI: 271000768.

Date/timePositionNaut miles runAvg speedWind from/ knotsBaromVisibWave heightAir tempDewpointWater temp
2017-Jun-25 06:20N 39°27' E 000°44'410.5
2017-Jun-25 05:58N 39°26' E 000°48'810.5
2017-Jun-25 05:14N 39°24' E 000°58'311.0
2017-Jun-25 04:56N 39°24' E 001°02'511.1
2017-Jun-25 04:30N 39°23' E 001°08'511.0
2017-Jun-25 04:00N 39°21' E 001°15'510.9
2017-Jun-25 03:30N 39°20' E 001°22'510.8
2017-Jun-25 03:00N 39°19' E 001°29'510.5
2017-Jun-25 02:30N 39°18' E 001°36'510.5
2017-Jun-25 02:00N 39°16' E 001°42'510.4
2017-Jun-25 01:30N 39°15' E 001°49'510.4
2017-Jun-25 01:00N 39°14' E 001°55'510.4
2017-Jun-25 00:30N 39°13' E 002°02'510.5
2017-Jun-25 00:00N 39°12' E 002°08'510.6
2017-Jun-24 23:31N 39°11' E 002°15'510.9
2017-Jun-24 23:00N 39°09' E 002°22'511.0
2017-Jun-24 22:31N 39°08' E 002°29'611.3
2017-Jun-24 22:00N 39°07' E 002°36'611.1
2017-Jun-24 21:31N 39°05' E 002°43'611.2
2017-Jun-24 21:01N 39°04' E 002°50'611.2
2017-Jun-24 20:30N 39°03' E 002°57'611.2
2017-Jun-24 20:00N 39°01' E 003°04'510.9
2017-Jun-24 19:31N 39°00' E 003°10'610.9
2017-Jun-24 19:00N 38°59' E 003°17'510.9
2017-Jun-24 18:30N 38°58' E 003°24'510.9
2017-Jun-24 18:00N 38°57' E 003°31'510.8
2017-Jun-24 17:31N 38°56' E 003°38'510.7
2017-Jun-24 17:00N 38°55' E 003°45'510.5
2017-Jun-24 16:30N 38°54' E 003°51'510.4
2017-Jun-24 15:59N 38°53' E 003°58'610.5
2017-Jun-24 15:25N 38°52' E 004°06'510.5
2017-Jun-24 14:55N 38°51' E 004°12'3610.7
2017-Jun-24 11:31N 38°42' E 004°58'011.1
2017-Jun-24 11:30N 38°42' E 004°58'611.1
2017-Jun-24 11:00N 38°41' E 005°05'3011.0
2017-Jun-24 08:16N 38°33' E 005°42'12410.4
2017-Jun-23 20:21N 38°10' E 008°17'610.5
2017-Jun-23 19:46N 38°08' E 008°24'310.4
2017-Jun-23 19:29N 38°07' E 008°28'510.3
2017-Jun-23 18:59N 38°06' E 008°34'510.3
2017-Jun-23 18:29N 38°05' E 008°41'510.2
2017-Jun-23 18:00N 38°04' E 008°47'610.3
2017-Jun-23 17:26N 38°03' E 008°54'510.2
2017-Jun-23 17:00N 38°03' E 009°00'1110.5
2017-Jun-23 15:55N 38°00' E 009°14'510.8
2017-Jun-23 15:30N 37°59' E 009°20'611.0
2017-Jun-23 14:58N 37°58' E 009°27'1110.8
2017-Jun-23 13:58N 37°56' E 009°40'510.6
2017-Jun-23 13:29N 37°55' E 009°47'2010.6
2017-Jun-23 11:36N 37°50' E 010°11'110.6
2017-Jun-23 11:30N 37°50' E 010°13'610.5
2017-Jun-23 10:58N 37°49' E 010°20'510.5
2017-Jun-23 10:30N 37°48' E 010°26'510.4
2017-Jun-23 10:00N 37°47' E 010°32'510.3
2017-Jun-23 09:30N 37°46' E 010°39'510.3
2017-Jun-23 09:00N 37°45' E 010°45'510.4
2017-Jun-23 08:30N 37°44' E 010°51'510.3
2017-Jun-23 08:00N 37°43' E 010°58'910.3
2017-Jun-23 07:09N 37°42' E 011°09'210.8
2017-Jun-23 07:00N 37°42' E 011°11'2410.8
2017-Jun-23 04:48N 37°38' E 011°40'311.1
2017-Jun-23 04:30N 37°38' E 011°44'510.6
2017-Jun-23 04:00N 37°37' E 011°51'510.3
2017-Jun-23 03:30N 37°36' E 011°58'510.6
2017-Jun-23 03:00N 37°35' E 012°04'510.7
2017-Jun-23 02:30N 37°34' E 012°11'1210.3
2017-Jun-23 01:18N 37°31' E 012°26'310.5
2017-Jun-23 01:00N 37°30' E 012°30'810.9
2017-Jun-23 00:16N 37°27' E 012°39'310.9
2017-Jun-23 00:00N 37°25' E 012°42'2511.0
2017-Jun-22 21:42N 37°14' E 013°10'210.9
2017-Jun-22 21:29N 37°12' E 013°13'511.0
2017-Jun-22 21:00N 37°10' E 013°19'510.6
2017-Jun-22 20:30N 37°07' E 013°24'510.3
2017-Jun-22 20:00N 37°05' E 013°30'510.2
2017-Jun-22 19:30N 37°03' E 013°36'510.0
2017-Jun-22 19:00N 37°00' E 013°41'5 9.8
2017-Jun-22 18:30N 36°58' E 013°47'5 9.7
2017-Jun-22 18:00N 36°56' E 013°52'5 9.7
2017-Jun-22 17:30N 36°53' E 013°57'5 9.8
2017-Jun-22 17:00N 36°51' E 014°03'5 9.8
2017-Jun-22 16:30N 36°49' E 014°08'5 9.8
2017-Jun-22 16:00N 36°47' E 014°14'5 9.7
2017-Jun-22 15:30N 36°44' E 014°19'5 9.6
2017-Jun-22 15:00N 36°42' E 014°24'5 9.7
2017-Jun-22 14:30N 36°41' E 014°30'10 9.5
2017-Jun-22 13:30N 36°39' E 014°42'510.4
2017-Jun-22 13:00N 36°38' E 014°48'510.8
2017-Jun-22 12:30N 36°37' E 014°55'610.8
2017-Jun-22 11:59N 36°36' E 015°02'3010.3
2017-Jun-22 09:02N 36°34' E 015°39'010.1
2017-Jun-22 09:00N 36°34' E 015°40'510.0
2017-Jun-22 08:30N 36°34' E 015°46'510.1
2017-Jun-22 08:00N 36°33' E 015°52'1110.1
2017-Jun-22 06:53N 36°33' E 016°06'410.2
2017-Jun-22 06:30N 36°33' E 016°11'  
Track history (hours):
 
Tides and Currents Weather Stations Pressure Air Temp Water Temp Dewpoint Dewpoint Depression Visibility Wind Speed Wind Dir Waves Ship Positions

N.dadayli

Last reported at 2017-Jun-25 06:20 UTC. Time now 2017-Jun-27 17:25 UTC.
Position N 39°27' E 000°44'.

Length 101 m; draft 8.1 m.

Type: Cargo ship. MMSI: 271000768.

Date/timePositionNaut miles runAvg speedWind from/ knotsBaromVisibWave heightAir tempDewpointWater temp
2017-Jun-25 06:20N 39°27' E 000°44'410.5
2017-Jun-25 05:58N 39°26' E 000°48'810.5
2017-Jun-25 05:14N 39°24' E 000°58'311.0
2017-Jun-25 04:56N 39°24' E 001°02'511.1
2017-Jun-25 04:30N 39°23' E 001°08'511.0
2017-Jun-25 04:00N 39°21' E 001°15'510.9
2017-Jun-25 03:30N 39°20' E 001°22'510.8
2017-Jun-25 03:00N 39°19' E 001°29'510.5
2017-Jun-25 02:30N 39°18' E 001°36'510.5
2017-Jun-25 02:00N 39°16' E 001°42'510.4
2017-Jun-25 01:30N 39°15' E 001°49'510.4
2017-Jun-25 01:00N 39°14' E 001°55'510.4
2017-Jun-25 00:30N 39°13' E 002°02'510.5
2017-Jun-25 00:00N 39°12' E 002°08'510.6
2017-Jun-24 23:31N 39°11' E 002°15'510.9
2017-Jun-24 23:00N 39°09' E 002°22'511.0
2017-Jun-24 22:31N 39°08' E 002°29'611.3
2017-Jun-24 22:00N 39°07' E 002°36'611.1
2017-Jun-24 21:31N 39°05' E 002°43'611.2
2017-Jun-24 21:01N 39°04' E 002°50'611.2
2017-Jun-24 20:30N 39°03' E 002°57'611.2
2017-Jun-24 20:00N 39°01' E 003°04'510.9
2017-Jun-24 19:31N 39°00' E 003°10'610.9
2017-Jun-24 19:00N 38°59' E 003°17'510.9
2017-Jun-24 18:30N 38°58' E 003°24'510.9
2017-Jun-24 18:00N 38°57' E 003°31'510.8
2017-Jun-24 17:31N 38°56' E 003°38'510.7
2017-Jun-24 17:00N 38°55' E 003°45'510.5
2017-Jun-24 16:30N 38°54' E 003°51'510.4
2017-Jun-24 15:59N 38°53' E 003°58'610.5
2017-Jun-24 15:25N 38°52' E 004°06'510.5
2017-Jun-24 14:55N 38°51' E 004°12'3610.7
2017-Jun-24 11:31N 38°42' E 004°58'011.1
2017-Jun-24 11:30N 38°42' E 004°58'611.1
2017-Jun-24 11:00N 38°41' E 005°05'3011.0
2017-Jun-24 08:16N 38°33' E 005°42'12410.4
2017-Jun-23 20:21N 38°10' E 008°17'610.5
2017-Jun-23 19:46N 38°08' E 008°24'310.4
2017-Jun-23 19:29N 38°07' E 008°28'510.3
2017-Jun-23 18:59N 38°06' E 008°34'510.3
2017-Jun-23 18:29N 38°05' E 008°41'510.2
2017-Jun-23 18:00N 38°04' E 008°47'610.3
2017-Jun-23 17:26N 38°03' E 008°54'510.2
2017-Jun-23 17:00N 38°03' E 009°00'1110.5
2017-Jun-23 15:55N 38°00' E 009°14'510.8
2017-Jun-23 15:30N 37°59' E 009°20'611.0
2017-Jun-23 14:58N 37°58' E 009°27'1110.8
2017-Jun-23 13:58N 37°56' E 009°40'510.6
2017-Jun-23 13:29N 37°55' E 009°47'2010.6
2017-Jun-23 11:36N 37°50' E 010°11'110.6
2017-Jun-23 11:30N 37°50' E 010°13'610.5
2017-Jun-23 10:58N 37°49' E 010°20'510.5
2017-Jun-23 10:30N 37°48' E 010°26'510.4
2017-Jun-23 10:00N 37°47' E 010°32'510.3
2017-Jun-23 09:30N 37°46' E 010°39'510.3
2017-Jun-23 09:00N 37°45' E 010°45'510.4
2017-Jun-23 08:30N 37°44' E 010°51'510.3
2017-Jun-23 08:00N 37°43' E 010°58'910.3
2017-Jun-23 07:09N 37°42' E 011°09'210.8
2017-Jun-23 07:00N 37°42' E 011°11'2410.8
2017-Jun-23 04:48N 37°38' E 011°40'311.1
2017-Jun-23 04:30N 37°38' E 011°44'510.6
2017-Jun-23 04:00N 37°37' E 011°51'510.3
2017-Jun-23 03:30N 37°36' E 011°58'510.6
2017-Jun-23 03:00N 37°35' E 012°04'510.7
2017-Jun-23 02:30N 37°34' E 012°11'1210.3
2017-Jun-23 01:18N 37°31' E 012°26'310.5
2017-Jun-23 01:00N 37°30' E 012°30'810.9
2017-Jun-23 00:16N 37°27' E 012°39'310.9
2017-Jun-23 00:00N 37°25' E 012°42'2511.0
2017-Jun-22 21:42N 37°14' E 013°10'210.9
2017-Jun-22 21:29N 37°12' E 013°13'511.0
2017-Jun-22 21:00N 37°10' E 013°19'510.6
2017-Jun-22 20:30N 37°07' E 013°24'510.3
2017-Jun-22 20:00N 37°05' E 013°30'510.2
2017-Jun-22 19:30N 37°03' E 013°36'510.0
2017-Jun-22 19:00N 37°00' E 013°41'5 9.8
2017-Jun-22 18:30N 36°58' E 013°47'5 9.7
2017-Jun-22 18:00N 36°56' E 013°52'5 9.7
2017-Jun-22 17:30N 36°53' E 013°57'5 9.8
2017-Jun-22 17:00N 36°51' E 014°03'5 9.8
2017-Jun-22 16:30N 36°49' E 014°08'5 9.8
2017-Jun-22 16:00N 36°47' E 014°14'5 9.7
2017-Jun-22 15:30N 36°44' E 014°19'5 9.6
2017-Jun-22 15:00N 36°42' E 014°24'5 9.7
2017-Jun-22 14:30N 36°41' E 014°30'10 9.5
2017-Jun-22 13:30N 36°39' E 014°42'510.4
2017-Jun-22 13:00N 36°38' E 014°48'510.8
2017-Jun-22 12:30N 36°37' E 014°55'610.8
2017-Jun-22 11:59N 36°36' E 015°02'3010.3
2017-Jun-22 09:02N 36°34' E 015°39'010.1
2017-Jun-22 09:00N 36°34' E 015°40'510.0
2017-Jun-22 08:30N 36°34' E 015°46'510.1
2017-Jun-22 08:00N 36°33' E 015°52'1110.1
2017-Jun-22 06:53N 36°33' E 016°06'410.2
2017-Jun-22 06:30N 36°33' E 016°11'  

Dump ship's entire track history